createdAt,value
2018-01-15T00:00:00.745Z,13.67
2018-01-15T00:02:28.338Z,16.33
2018-01-15T00:04:55.919Z,22.37
2018-01-15T00:07:23.507Z,24.47
2018-01-15T00:09:51.081Z,14.83
2018-01-15T00:12:18.673Z,13.80
2018-01-15T00:14:47.011Z,14.70
2018-01-15T00:17:14.614Z,14.70
2018-01-15T00:19:42.182Z,13.67
2018-01-15T00:22:17.308Z,13.67
2018-01-15T00:24:45.646Z,17.30
2018-01-15T00:27:13.239Z,13.70
2018-01-15T00:29:40.796Z,13.70
2018-01-15T00:32:08.391Z,13.53
2018-01-15T00:34:35.964Z,12.40
2018-01-15T00:37:03.554Z,11.37
2018-01-15T00:39:31.135Z,21.10
2018-01-15T00:41:58.725Z,16.17
2018-01-15T00:44:26.290Z,12.87
2018-01-15T00:46:53.879Z,18.90
2018-01-15T00:49:21.437Z,14.43
2018-01-15T00:51:49.037Z,15.27
2018-01-15T00:54:16.612Z,9.90
2018-01-15T00:56:44.206Z,13.03
2018-01-15T00:59:11.775Z,10.57
2018-01-15T01:01:39.374Z,11.20
2018-01-15T01:04:07.696Z,10.70
2018-01-15T01:06:35.291Z,11.30
2018-01-15T01:09:02.887Z,11.93
2018-01-15T01:11:30.467Z,20.53
2018-01-15T01:13:58.061Z,24.17
2018-01-15T01:16:25.640Z,21.43
2018-01-15T01:18:53.266Z,21.30
2018-01-15T01:21:20.840Z,15.83
2018-01-15T01:23:48.457Z,13.40
2018-01-15T01:26:16.026Z,13.43
2018-01-15T01:28:43.617Z,13.77
2018-01-15T01:31:11.188Z,14.50
2018-01-15T01:33:38.803Z,13.37
2018-01-15T01:36:06.421Z,11.43
2018-01-15T01:38:34.026Z,12.10
2018-01-15T01:41:01.593Z,11.37
2018-01-15T01:43:29.190Z,11.03
2018-01-15T01:45:56.773Z,10.97
2018-01-15T01:48:25.143Z,12.73
2018-01-15T01:50:52.719Z,12.00
2018-01-15T01:53:20.308Z,14.60
2018-01-15T01:55:47.886Z,20.77
2018-01-15T01:58:15.477Z,18.13
2018-01-15T02:00:43.818Z,13.70
2018-01-15T02:03:11.417Z,34.20
2018-01-15T02:05:38.998Z,11.63
2018-01-15T02:08:06.735Z,16.50
2018-01-15T02:10:34.313Z,12.10
2018-01-15T02:13:01.916Z,11.77
2018-01-15T02:15:29.486Z,12.50
2018-01-15T02:17:58.548Z,12.13
2018-01-15T02:20:26.122Z,12.00
2018-01-15T02:22:54.469Z,12.53
2018-01-15T02:25:22.061Z,11.57
2018-01-15T02:27:49.637Z,11.50
2018-01-15T02:30:17.234Z,11.77
2018-01-15T02:32:44.807Z,17.10
2018-01-15T02:35:12.405Z,17.17
2018-01-15T02:37:39.985Z,56.20
2018-01-15T02:40:08.357Z,57.13
2018-01-15T02:42:35.929Z,31.10
2018-01-15T02:45:04.287Z,20.20
2018-01-15T02:47:31.861Z,12.00
2018-01-15T02:50:00.231Z,11.37
2018-01-15T02:52:28.577Z,11.10
2018-01-15T02:54:56.184Z,11.70
2018-01-15T02:57:24.521Z,11.30
2018-01-15T02:59:52.126Z,10.83
2018-01-15T03:02:20.470Z,10.70
2018-01-15T03:04:48.072Z,12.20
2018-01-15T03:07:15.641Z,12.73
2018-01-15T03:09:43.238Z,11.00
2018-01-15T03:12:10.815Z,17.73
2018-01-15T03:14:38.405Z,25.47
2018-01-15T03:17:05.976Z,15.67
2018-01-15T03:19:33.569Z,15.30
2018-01-15T03:22:04.028Z,14.50
2018-01-15T03:24:31.619Z,12.57
2018-01-15T03:26:59.201Z,12.23
2018-01-15T03:29:26.789Z,12.07
2018-01-15T03:31:54.355Z,11.50
2018-01-15T03:34:21.952Z,10.13
2018-01-15T03:36:49.534Z,10.63
2018-01-15T03:39:17.121Z,12.30
2018-01-15T03:41:44.717Z,9.87
2018-01-15T03:44:12.285Z,12.03
2018-01-15T03:46:39.873Z,10.53
2018-01-15T03:49:07.449Z,10.90
2018-01-15T03:51:35.042Z,12.20
2018-01-15T03:54:03.371Z,12.70
2018-01-15T03:56:30.974Z,13.80
2018-01-15T03:58:58.540Z,12.63
2018-01-15T04:01:26.137Z,10.40
2018-01-15T04:03:53.706Z,11.20
2018-01-15T04:06:21.296Z,10.57
2018-01-15T04:08:48.870Z,11.77
2018-01-15T04:11:16.815Z,10.57
2018-01-15T04:13:46.657Z,11.10
2018-01-15T04:16:15.435Z,10.43
2018-01-15T04:18:43.034Z,10.53
2018-01-15T04:21:10.625Z,11.70
2018-01-15T04:23:38.205Z,10.20
2018-01-15T04:26:05.808Z,11.43
2018-01-15T04:28:33.379Z,15.80
2018-01-15T04:31:00.974Z,11.77
2018-01-15T04:33:28.548Z,19.37
2018-01-15T04:35:56.156Z,20.10
2018-01-15T04:38:23.721Z,17.50
2018-01-15T04:40:51.317Z,14.73
2018-01-15T04:43:18.883Z,10.27
2018-01-15T04:45:46.472Z,11.07
2018-01-15T04:48:14.033Z,23.93
2018-01-15T04:50:41.625Z,12.27
2018-01-15T04:53:09.208Z,10.93
2018-01-15T04:55:36.778Z,12.30
2018-01-15T04:58:04.374Z,16.10
2018-01-15T05:00:31.943Z,11.97
2018-01-15T05:02:59.534Z,10.80
2018-01-15T05:05:27.545Z,11.10
2018-01-15T05:07:55.134Z,16.50
2018-01-15T05:10:22.706Z,21.00
2018-01-15T05:12:50.291Z,18.43
2018-01-15T05:15:17.861Z,15.40
2018-01-15T05:17:45.450Z,16.10
2018-01-15T05:20:13.581Z,12.17
2018-01-15T05:22:41.174Z,12.97
2018-01-15T05:25:09.534Z,21.90
2018-01-15T05:27:37.150Z,11.10
2018-01-15T05:30:04.713Z,11.00
2018-01-15T05:32:32.300Z,10.00
2018-01-15T05:35:00.878Z,10.40
2018-01-15T05:37:28.461Z,13.00
2018-01-15T05:39:56.025Z,11.37
2018-01-15T05:42:24.381Z,8.67
2018-01-15T05:44:51.944Z,11.27
2018-01-15T05:47:19.533Z,11.60
2018-01-15T05:49:47.105Z,10.97
2018-01-15T05:52:14.709Z,12.10
2018-01-15T05:54:42.276Z,11.30
2018-01-15T05:57:09.873Z,9.80
2018-01-15T05:59:37.444Z,10.90
2018-01-15T06:02:05.035Z,9.80
2018-01-15T06:04:32.596Z,9.03
2018-01-15T06:07:00.189Z,9.00
2018-01-15T06:09:28.520Z,13.33
2018-01-15T06:11:56.094Z,11.17
2018-01-15T06:14:23.732Z,10.93
2018-01-15T06:16:51.434Z,10.30
2018-01-15T06:19:19.018Z,9.83
2018-01-15T06:21:47.349Z,11.13
2018-01-15T06:24:14.941Z,10.57
2018-01-15T06:26:43.276Z,11.40
2018-01-15T06:29:10.866Z,7.47
2018-01-15T06:31:38.433Z,8.00
2018-01-15T06:34:06.790Z,9.50
2018-01-15T06:36:34.357Z,10.60
2018-01-15T06:39:01.952Z,10.20
2018-01-15T06:41:29.520Z,10.33
2018-01-15T06:43:57.105Z,10.10
2018-01-15T06:46:24.681Z,9.97
2018-01-15T06:48:52.273Z,10.73
2018-01-15T06:51:19.839Z,10.30
2018-01-15T06:53:47.438Z,11.70
2018-01-15T06:56:15.005Z,12.37
2018-01-15T06:58:43.168Z,12.50
2018-01-15T07:01:11.549Z,11.80
2018-01-15T07:03:39.137Z,14.00
2018-01-15T07:06:06.701Z,13.57
2018-01-15T07:08:34.296Z,14.00
2018-01-15T07:11:01.870Z,12.77
2018-01-15T07:13:29.459Z,14.50
2018-01-15T07:15:57.028Z,14.10
2018-01-15T07:18:24.618Z,14.00
2018-01-15T07:20:52.179Z,14.13
2018-01-15T07:23:20.562Z,12.90
2018-01-15T07:25:48.139Z,12.70
2018-01-15T07:28:15.704Z,13.10
2018-01-15T07:30:43.294Z,11.00
2018-01-15T07:33:10.859Z,12.10
2018-01-15T07:35:38.449Z,12.70
2018-01-15T07:38:06.787Z,13.30
2018-01-15T07:40:34.377Z,16.13
2018-01-15T07:43:02.718Z,16.00
2018-01-15T07:45:30.317Z,12.10
2018-01-15T07:47:57.881Z,10.40
2018-01-15T07:50:26.240Z,15.03
2018-01-15T07:52:53.810Z,9.03
2018-01-15T07:55:22.163Z,10.10
2018-01-15T07:57:49.733Z,11.60
2018-01-15T08:00:17.334Z,11.30
2018-01-15T08:02:44.901Z,12.90
2018-01-15T08:05:12.494Z,15.03
2018-01-15T08:07:40.065Z,27.20
2018-01-15T08:10:07.650Z,25.30
2018-01-15T08:12:35.216Z,33.90
2018-01-15T08:15:02.947Z,22.37
2018-01-15T08:17:30.517Z,20.10
2018-01-15T08:19:58.110Z,13.43
2018-01-15T08:22:25.689Z,15.20
2018-01-15T08:24:53.276Z,16.07
2018-01-15T08:27:20.849Z,14.10
2018-01-15T08:29:48.440Z,13.53
2018-01-15T08:32:16.041Z,11.90
2018-01-15T08:34:43.651Z,12.33
2018-01-15T08:37:11.217Z,13.43
2018-01-15T08:39:38.782Z,13.10
2018-01-15T08:42:06.388Z,15.53
2018-01-15T08:44:33.960Z,13.53
2018-01-15T08:47:01.553Z,13.23
2018-01-15T08:49:29.124Z,14.57
2018-01-15T08:51:56.715Z,13.03
2018-01-15T08:54:24.285Z,17.47
2018-01-15T08:56:51.881Z,17.73
2018-01-15T08:59:19.483Z,16.87
2018-01-15T09:01:47.060Z,16.50
2018-01-15T09:04:14.634Z,15.53
2018-01-15T09:06:42.229Z,28.67
2018-01-15T09:09:09.798Z,31.13
2018-01-15T09:11:37.388Z,21.30
2018-01-15T09:14:04.962Z,15.10
2018-01-15T09:16:32.555Z,16.87
2018-01-15T09:19:00.593Z,12.53
2018-01-15T09:21:28.189Z,8.13
2018-01-15T09:23:55.753Z,8.83
2018-01-15T09:26:23.345Z,9.53
2018-01-15T09:28:50.915Z,13.00
2018-01-15T09:31:18.502Z,10.67
2018-01-15T09:33:46.073Z,14.53
2018-01-15T09:36:13.659Z,11.17
2018-01-15T09:38:41.222Z,9.80
2018-01-15T09:41:08.810Z,9.57
2018-01-15T09:43:36.369Z,9.03
2018-01-15T09:46:03.958Z,9.63
2018-01-15T09:48:31.865Z,11.53
2018-01-15T09:50:59.430Z,11.30
2018-01-15T09:53:27.017Z,17.30
2018-01-15T09:55:54.610Z,14.40
2018-01-15T09:58:22.942Z,15.90
2018-01-15T10:00:50.538Z,16.97
2018-01-15T10:03:18.098Z,20.20
2018-01-15T10:05:46.449Z,19.80
2018-01-15T10:08:14.022Z,20.33
2018-01-15T10:10:41.613Z,20.57
2018-01-15T10:13:09.373Z,20.83
2018-01-15T10:15:36.961Z,21.10
2018-01-15T10:18:04.525Z,22.53
2018-01-15T10:20:32.118Z,20.10
2018-01-15T10:23:00.583Z,21.13
2018-01-15T10:25:28.214Z,21.77
2018-01-15T10:27:55.799Z,22.10
2018-01-15T10:30:23.418Z,20.83
2018-01-15T10:32:51.012Z,22.10
2018-01-15T10:35:18.581Z,24.30
2018-01-15T10:37:46.177Z,22.83
2018-01-15T10:40:14.518Z,25.90
2018-01-15T10:42:42.113Z,22.07
2018-01-15T10:45:09.687Z,23.70
2018-01-15T10:47:37.277Z,21.47
2018-01-15T10:50:04.848Z,22.00
2018-01-15T10:52:32.442Z,22.10
2018-01-15T10:55:00.772Z,21.10
2018-01-15T10:57:28.365Z,22.47
2018-01-15T10:59:55.950Z,29.60
2018-01-15T11:02:23.540Z,32.27
2018-01-15T11:04:51.104Z,28.10
2018-01-15T11:07:18.697Z,26.40
2018-01-15T11:09:46.285Z,25.77
2018-01-15T11:12:13.883Z,30.47
2018-01-15T11:14:41.452Z,33.17
2018-01-15T11:17:09.089Z,28.87
2018-01-15T11:22:05.420Z,29.70
2018-01-15T11:24:33.310Z,31.07
2018-01-15T11:27:00.886Z,30.13
2018-01-15T11:29:28.482Z,27.87
2018-01-15T11:31:56.268Z,24.67
2018-01-15T11:34:24.116Z,24.20
2018-01-15T11:36:53.096Z,22.10
2018-01-15T11:39:21.649Z,29.70
2018-01-15T11:41:50.218Z,32.17
2018-01-15T11:44:17.948Z,47.20
2018-01-15T11:46:46.196Z,43.40
2018-01-15T11:49:14.199Z,32.30
2018-01-15T11:51:42.517Z,31.57
2018-01-15T11:54:11.949Z,26.47
2018-01-15T11:56:40.772Z,27.80
2018-01-15T11:59:09.008Z,29.50
2018-01-15T12:01:36.646Z,26.87
2018-01-15T12:04:04.242Z,26.97
2018-01-15T12:06:31.822Z,23.83
2018-01-15T12:08:59.576Z,23.93
2018-01-15T12:11:27.141Z,20.73
2018-01-15T12:13:54.734Z,21.10
2018-01-15T12:16:22.297Z,36.93
2018-01-15T12:18:49.915Z,31.73
2018-01-15T12:21:18.725Z,28.40
2018-01-15T12:23:46.455Z,30.50
2018-01-15T12:26:14.806Z,31.63
2018-01-15T12:28:42.398Z,28.23
2018-01-15T12:31:09.969Z,28.13
2018-01-15T12:33:37.545Z,28.10
2018-01-15T12:36:05.128Z,26.63
2018-01-15T12:38:34.321Z,29.00
2018-01-15T12:41:01.976Z,27.30
2018-01-15T12:43:29.536Z,26.30
2018-01-15T12:45:57.126Z,26.60
2018-01-15T12:48:25.466Z,42.40
2018-01-15T12:50:53.064Z,29.20
2018-01-15T12:53:21.403Z,25.97
2018-01-15T12:55:49.002Z,24.73
2018-01-15T12:58:17.337Z,20.57
2018-01-15T13:00:44.929Z,21.70
2018-01-15T13:03:12.493Z,21.07
2018-01-15T13:05:50.772Z,25.67
2018-01-15T13:08:28.162Z,22.50
2018-01-15T13:10:55.758Z,30.50
2018-01-15T13:13:24.096Z,45.83
2018-01-15T13:15:51.689Z,31.30
2018-01-15T13:18:20.029Z,27.43
2018-01-15T13:20:47.612Z,30.40
2018-01-15T13:23:15.181Z,30.10
2018-01-15T13:25:42.779Z,29.90
2018-01-15T13:28:10.348Z,24.87
2018-01-15T13:30:37.938Z,22.47
2018-01-15T13:33:05.514Z,19.73
2018-01-15T13:35:33.108Z,18.53
2018-01-15T13:38:00.682Z,19.30
2018-01-15T13:40:28.272Z,28.87
2018-01-15T13:42:55.849Z,20.97
2018-01-15T13:45:23.437Z,26.40
2018-01-15T13:47:51.771Z,14.90
2018-01-15T13:50:19.361Z,19.40
2018-01-15T13:52:47.699Z,13.87
2018-01-15T13:55:15.268Z,15.90
2018-01-15T13:57:42.848Z,14.57
2018-01-15T14:00:10.418Z,13.97
2018-01-15T14:02:38.779Z,12.70
2018-01-15T14:05:06.345Z,10.57
2018-01-15T14:07:34.701Z,9.60
2018-01-15T14:10:02.310Z,8.90
2018-01-15T14:12:29.897Z,7.67
2018-01-15T14:14:57.465Z,6.30
2018-01-15T14:17:25.049Z,4.70
2018-01-15T14:19:52.608Z,5.77
2018-01-15T14:22:20.196Z,4.90
2018-01-15T14:24:48.526Z,3.43
2018-01-15T14:27:16.115Z,3.90
2018-01-15T14:29:44.438Z,3.83
2018-01-15T14:32:12.594Z,3.50
2018-01-15T14:34:40.211Z,3.83
2018-01-15T14:37:07.797Z,4.70
2018-01-15T14:39:35.387Z,4.30
2018-01-15T14:42:02.964Z,4.37
2018-01-15T14:44:30.528Z,4.50
2018-01-15T14:46:58.113Z,3.70
2018-01-15T14:49:25.677Z,3.97
2018-01-15T14:51:54.030Z,3.77
2018-01-15T14:54:21.593Z,3.93
2018-01-15T14:56:49.184Z,3.37
2018-01-15T14:59:17.518Z,3.73
2018-01-15T15:01:45.106Z,3.60
2018-01-15T15:04:13.429Z,4.10
2018-01-15T15:06:41.013Z,3.90
2018-01-15T15:09:08.577Z,2.90
2018-01-15T15:11:36.171Z,2.80
2018-01-15T15:14:04.501Z,3.40
2018-01-15T15:16:32.265Z,3.03
2018-01-15T15:18:59.830Z,2.80
2018-01-15T15:21:27.392Z,3.03
2018-01-15T15:23:54.997Z,3.63
2018-01-15T15:26:22.569Z,3.60
2018-01-15T15:28:50.157Z,3.07
2018-01-15T15:31:17.725Z,3.47
2018-01-15T15:33:45.321Z,3.37
2018-01-15T15:36:13.653Z,3.50
2018-01-15T15:38:41.237Z,3.30
2018-01-15T15:41:08.796Z,4.33
2018-01-15T15:43:36.372Z,4.60
2018-01-15T15:46:04.696Z,2.83
2018-01-15T15:48:32.285Z,3.23
2018-01-15T15:50:59.846Z,2.80
2018-01-15T15:53:27.434Z,2.50
2018-01-15T15:55:55.766Z,2.83
2018-01-15T15:58:23.353Z,2.77
2018-01-15T16:00:50.919Z,2.80
2018-01-15T16:03:19.329Z,2.63
2018-01-15T16:05:46.867Z,2.97
2018-01-15T16:08:15.218Z,3.17
2018-01-15T16:10:42.776Z,2.60
2018-01-15T16:13:10.361Z,2.47
2018-01-15T16:15:37.920Z,2.93
2018-01-15T16:18:06.279Z,2.47
2018-01-15T16:20:33.842Z,3.00
2018-01-15T16:23:02.196Z,2.90
2018-01-15T16:25:29.757Z,3.00
2018-01-15T16:27:57.349Z,2.10
2018-01-15T16:30:25.672Z,2.83
2018-01-15T16:32:53.237Z,3.03
2018-01-15T16:35:20.837Z,2.90
2018-01-15T16:37:49.174Z,3.90
2018-01-15T16:40:16.770Z,2.80
2018-01-15T16:42:44.339Z,3.47
2018-01-15T16:45:12.685Z,3.30
2018-01-15T16:47:40.255Z,2.90
2018-01-15T16:50:25.630Z,3.47
2018-01-15T16:52:53.192Z,2.73
2018-01-15T16:55:20.773Z,2.67
2018-01-15T16:57:48.335Z,2.80
2018-01-15T17:00:16.693Z,2.93
2018-01-15T17:02:44.254Z,3.17
2018-01-15T17:05:12.601Z,2.67
2018-01-15T17:07:40.174Z,3.90
2018-01-15T17:10:07.760Z,2.70
2018-01-15T17:12:36.092Z,2.70
2018-01-15T17:15:03.677Z,3.03
2018-01-15T17:17:31.246Z,3.00
2018-01-15T17:19:58.833Z,3.13
2018-01-15T17:22:26.392Z,3.27
2018-01-15T17:24:53.975Z,3.03
2018-01-15T17:27:21.541Z,3.93
2018-01-15T17:29:49.247Z,3.50
2018-01-15T17:32:16.813Z,3.40
2018-01-15T17:34:45.161Z,3.10
2018-01-15T17:37:12.725Z,3.73
2018-01-15T17:39:40.304Z,3.17
2018-01-15T17:42:08.630Z,5.60
2018-01-15T17:44:36.212Z,4.40
2018-01-15T17:47:03.781Z,4.17
2018-01-15T17:49:31.377Z,5.57
2018-01-15T17:51:58.937Z,6.23
2018-01-15T17:54:26.501Z,5.10
2018-01-15T17:56:54.093Z,3.80
2018-01-15T17:59:21.657Z,9.23
2018-01-15T18:01:49.249Z,4.30
2018-01-15T18:04:16.813Z,9.27
2018-01-15T18:06:45.166Z,6.70
2018-01-15T18:09:12.732Z,5.37
2018-01-15T18:11:41.092Z,6.10
2018-01-15T18:14:08.660Z,5.50
2018-01-15T18:16:36.246Z,3.47
2018-01-15T18:19:04.572Z,3.40
2018-01-15T18:21:32.161Z,3.80
2018-01-15T18:23:59.834Z,4.47
2018-01-15T18:26:28.190Z,4.00
2018-01-15T18:28:55.753Z,5.20
2018-01-15T18:31:23.354Z,5.83
2018-01-15T18:33:50.910Z,4.53
2018-01-15T18:36:18.499Z,3.77
2018-01-15T18:38:46.061Z,3.90
2018-01-15T18:41:13.650Z,3.30
2018-01-15T18:43:41.212Z,2.87
2018-01-15T18:46:08.792Z,3.70
2018-01-15T18:48:37.117Z,2.33
2018-01-15T18:51:04.706Z,2.87
2018-01-15T18:53:32.264Z,3.03
2018-01-15T18:55:59.853Z,3.23
2018-01-15T18:58:27.421Z,3.43
2018-01-15T19:00:55.002Z,2.67
2018-01-15T19:03:22.593Z,3.87
2018-01-15T19:05:50.173Z,3.40
2018-01-15T19:08:18.525Z,3.67
2018-01-15T19:10:46.084Z,3.97
2018-01-15T19:13:13.669Z,3.00
2018-01-15T19:15:41.996Z,2.80
2018-01-15T19:18:09.576Z,6.93
2018-01-15T19:20:37.136Z,4.27
2018-01-15T19:23:04.720Z,2.40
2018-01-15T19:25:33.045Z,3.23
2018-01-15T19:28:00.631Z,2.90
2018-01-15T19:30:28.236Z,2.37
2018-01-15T19:32:55.835Z,2.30
2018-01-15T19:35:33.056Z,2.17
2018-01-15T19:38:00.641Z,2.20
2018-01-15T19:40:28.208Z,2.00
2018-01-15T19:42:56.273Z,2.27
2018-01-15T19:45:41.634Z,1.70
2018-01-15T19:48:15.616Z,1.50
2018-01-15T19:50:48.767Z,2.00
2018-01-15T19:53:35.144Z,1.60
2018-01-15T19:56:08.284Z,2.13
2018-01-15T19:58:41.508Z,1.60
2018-01-15T20:01:15.434Z,1.43
2018-01-15T20:03:48.585Z,1.40
2018-01-15T20:06:21.759Z,1.87
2018-01-15T20:08:54.902Z,1.17
2018-01-15T20:11:23.261Z,1.10
2018-01-15T20:13:51.618Z,1.20
2018-01-15T20:16:19.181Z,1.30
2018-01-15T20:18:46.824Z,1.03
2018-01-15T20:21:14.388Z,1.40
2018-01-15T20:23:41.982Z,1.10
2018-01-15T20:26:10.314Z,0.90
2018-01-15T20:28:37.900Z,1.20
2018-01-15T20:31:05.504Z,1.13
2018-01-15T20:33:33.086Z,1.30
2018-01-15T20:36:00.651Z,0.90
2018-01-15T20:38:28.308Z,1.53
2018-01-15T20:40:55.926Z,0.90
2018-01-15T20:43:23.560Z,0.90
2018-01-15T20:45:51.164Z,1.77
2018-01-15T20:48:18.801Z,0.93
2018-01-15T20:50:47.836Z,0.97
2018-01-15T20:53:16.147Z,1.07
2018-01-15T20:55:43.816Z,0.80
2018-01-15T20:58:12.221Z,0.70
2018-01-15T21:00:40.354Z,0.60
2018-01-15T21:03:08.788Z,0.80
2018-01-15T21:05:36.746Z,0.77
2018-01-15T21:08:04.417Z,1.00
2018-01-15T21:10:31.986Z,0.80
2018-01-15T21:12:59.549Z,0.83
2018-01-15T21:15:27.188Z,1.03
2018-01-15T21:17:54.755Z,0.97
2018-01-15T21:20:22.379Z,0.70
2018-01-15T21:22:50.706Z,0.63
2018-01-15T21:25:18.331Z,1.03
2018-01-15T21:27:45.906Z,0.60
2018-01-15T21:30:13.544Z,1.10
2018-01-15T21:32:41.916Z,0.60
2018-01-15T21:35:10.265Z,0.93
2018-01-15T21:37:38.664Z,1.20
2018-01-15T21:40:07.064Z,0.60
2018-01-15T21:42:34.701Z,0.67
2018-01-15T21:45:02.327Z,0.60
2018-01-15T21:47:29.931Z,0.80
2018-01-15T21:49:57.559Z,0.60
2018-01-15T21:52:25.176Z,0.60
2018-01-15T21:54:52.761Z,0.60
2018-01-15T21:57:20.325Z,0.97
2018-01-15T21:59:47.954Z,0.60
2018-01-15T22:02:15.509Z,0.50
2018-01-15T22:04:43.097Z,0.60
2018-01-15T22:07:10.715Z,0.50
2018-01-15T22:09:39.097Z,0.70
2018-01-15T22:12:06.660Z,0.60
2018-01-15T22:14:34.245Z,0.90
2018-01-15T22:17:01.851Z,0.90
2018-01-15T22:19:29.439Z,0.63
2018-01-15T22:21:56.997Z,0.60
2018-01-15T22:24:24.752Z,0.70
2018-01-15T22:26:52.355Z,0.60
2018-01-15T22:29:20.689Z,0.70
2018-01-15T22:31:48.272Z,0.70
2018-01-15T22:34:15.837Z,0.70
2018-01-15T22:36:43.422Z,1.07
2018-01-15T22:39:10.988Z,0.50
2018-01-15T22:41:38.573Z,0.70
2018-01-15T22:44:06.137Z,0.50
2018-01-15T22:46:34.495Z,0.60
2018-01-15T22:49:02.050Z,0.57
2018-01-15T22:51:29.628Z,0.60
2018-01-15T22:53:57.188Z,0.70
2018-01-15T22:56:25.535Z,0.93
2018-01-15T22:58:53.098Z,0.73
2018-01-15T23:01:20.693Z,0.50
2018-01-15T23:03:48.257Z,0.60
2018-01-15T23:06:15.853Z,0.60
2018-01-15T23:08:43.417Z,0.60
2018-01-15T23:11:11.049Z,0.67
2018-01-15T23:13:39.355Z,0.50
2018-01-15T23:16:06.945Z,0.70
2018-01-15T23:18:34.504Z,0.40
2018-01-15T23:21:02.089Z,0.80
2018-01-15T23:23:29.652Z,0.50
2018-01-15T23:25:57.234Z,0.60
2018-01-15T23:28:24.797Z,0.40
2018-01-15T23:30:52.387Z,0.53
2018-01-15T23:33:19.948Z,0.50
2018-01-15T23:35:48.105Z,0.60
2018-01-15T23:38:15.660Z,0.77
2018-01-15T23:40:43.248Z,0.70
2018-01-15T23:43:11.625Z,0.50
2018-01-15T23:45:39.953Z,0.60
2018-01-15T23:48:07.533Z,0.60
2018-01-15T23:50:35.097Z,0.60
2018-01-15T23:53:02.781Z,0.70
2018-01-15T23:55:30.345Z,0.70
2018-01-15T23:57:58.695Z,0.60
